sensor_id;sensor_type;location;lat;lon;timestamp;temperature;humidity
38263;DHT22;24054;50.128;19.730;2024-02-21T00:00:03;20.20;55.20
38263;DHT22;24054;50.128;19.730;2024-02-21T00:02:31;20.20;55.10
38263;DHT22;24054;50.128;19.730;2024-02-21T00:04:58;20.20;55.00
38263;DHT22;24054;50.128;19.730;2024-02-21T00:07:26;20.20;55.00
38263;DHT22;24054;50.128;19.730;2024-02-21T00:09:53;20.20;55.00
38263;DHT22;24054;50.128;19.730;2024-02-21T00:12:20;20.20;55.00
38263;DHT22;24054;50.128;19.730;2024-02-21T00:14:48;20.10;54.90
38263;DHT22;24054;50.128;19.730;2024-02-21T00:17:17;20.10;54.80
38263;DHT22;24054;50.128;19.730;2024-02-21T00:19:44;20.10;54.80
38263;DHT22;24054;50.128;19.730;2024-02-21T00:22:11;20.10;54.80
38263;DHT22;24054;50.128;19.730;2024-02-21T00:24:38;20.10;54.80
38263;DHT22;24054;50.128;19.730;2024-02-21T00:27:05;20.10;54.70
38263;DHT22;24054;50.128;19.730;2024-02-21T00:29:33;20.10;54.70
38263;DHT22;24054;50.128;19.730;2024-02-21T00:32:01;20.00;54.70
38263;DHT22;24054;50.128;19.730;2024-02-21T00:34:30;20.10;54.70
38263;DHT22;24054;50.128;19.730;2024-02-21T00:36:57;20.00;54.70
38263;DHT22;24054;50.128;19.730;2024-02-21T00:39:25;20.10;54.70
38263;DHT22;24054;50.128;19.730;2024-02-21T00:41:52;20.00;54.60
38263;DHT22;24054;50.128;19.730;2024-02-21T00:44:19;20.00;54.60
38263;DHT22;24054;50.128;19.730;2024-02-21T00:46:46;20.00;54.50
38263;DHT22;24054;50.128;19.730;2024-02-21T00:49:13;19.90;54.50
38263;DHT22;24054;50.128;19.730;2024-02-21T00:51:41;19.90;54.40
38263;DHT22;24054;50.128;19.730;2024-02-21T00:54:08;19.90;54.40
38263;DHT22;24054;50.128;19.730;2024-02-21T00:56:36;19.90;54.40
38263;DHT22;24054;50.128;19.730;2024-02-21T00:59:03;19.90;54.40
38263;DHT22;24054;50.128;19.730;2024-02-21T01:01:30;19.90;54.30
38263;DHT22;24054;50.128;19.730;2024-02-21T01:03:58;19.90;54.30
38263;DHT22;24054;50.128;19.730;2024-02-21T01:06:25;19.90;54.30
38263;DHT22;24054;50.128;19.730;2024-02-21T01:11:21;19.80;53.70
38263;DHT22;24054;50.128;19.730;2024-02-21T01:13:48;19.80;54.20
38263;DHT22;24054;50.128;19.730;2024-02-21T01:16:15;19.80;54.20
38263;DHT22;24054;50.128;19.730;2024-02-21T01:18:43;19.80;54.20
38263;DHT22;24054;50.128;19.730;2024-02-21T01:21:10;19.80;54.20
38263;DHT22;24054;50.128;19.730;2024-02-21T01:23:37;19.70;54.10
38263;DHT22;24054;50.128;19.730;2024-02-21T01:26:06;19.80;54.10
38263;DHT22;24054;50.128;19.730;2024-02-21T01:28:34;19.80;54.10
38263;DHT22;24054;50.128;19.730;2024-02-21T01:31:01;19.80;54.10
38263;DHT22;24054;50.128;19.730;2024-02-21T01:33:28;19.80;54.10
38263;DHT22;24054;50.128;19.730;2024-02-21T01:36:00;19.70;54.00
38263;DHT22;24054;50.128;19.730;2024-02-21T01:38:28;19.70;54.00
38263;DHT22;24054;50.128;19.730;2024-02-21T01:40:55;19.70;54.00
38263;DHT22;24054;50.128;19.730;2024-02-21T01:43:24;19.70;54.00
38263;DHT22;24054;50.128;19.730;2024-02-21T01:45:53;19.70;54.00
38263;DHT22;24054;50.128;19.730;2024-02-21T01:48:22;19.70;54.00
38263;DHT22;24054;50.128;19.730;2024-02-21T01:50:50;19.70;54.00
38263;DHT22;24054;50.128;19.730;2024-02-21T01:53:20;19.70;54.00
38263;DHT22;24054;50.128;19.730;2024-02-21T01:55:48;19.60;53.90
38263;DHT22;24054;50.128;19.730;2024-02-21T01:58:16;19.60;53.90
38263;DHT22;24054;50.128;19.730;2024-02-21T02:00:46;19.60;53.90
38263;DHT22;24054;50.128;19.730;2024-02-21T02:03:14;19.60;53.90
38263;DHT22;24054;50.128;19.730;2024-02-21T02:05:43;19.60;53.90
38263;DHT22;24054;50.128;19.730;2024-02-21T02:08:12;19.60;53.90
38263;DHT22;24054;50.128;19.730;2024-02-21T02:10:39;19.60;53.90
38263;DHT22;24054;50.128;19.730;2024-02-21T02:13:07;19.60;53.80
38263;DHT22;24054;50.128;19.730;2024-02-21T02:15:41;19.60;53.80
38263;DHT22;24054;50.128;19.730;2024-02-21T02:18:10;19.60;53.80
38263;DHT22;24054;50.128;19.730;2024-02-21T02:20:38;19.60;53.80
38263;DHT22;24054;50.128;19.730;2024-02-21T02:23:07;19.50;53.80
38263;DHT22;24054;50.128;19.730;2024-02-21T02:25:38;19.60;53.80
38263;DHT22;24054;50.128;19.730;2024-02-21T02:28:06;19.50;53.70
38263;DHT22;24054;50.128;19.730;2024-02-21T02:30:33;19.50;53.70
38263;DHT22;24054;50.128;19.730;2024-02-21T02:33:02;19.50;53.70
38263;DHT22;24054;50.128;19.730;2024-02-21T02:35:29;19.50;53.70
38263;DHT22;24054;50.128;19.730;2024-02-21T02:37:56;19.50;53.70
38263;DHT22;24054;50.128;19.730;2024-02-21T02:40:24;19.50;53.70
38263;DHT22;24054;50.128;19.730;2024-02-21T02:42:52;19.50;53.70
38263;DHT22;24054;50.128;19.730;2024-02-21T02:45:21;19.40;53.60
38263;DHT22;24054;50.128;19.730;2024-02-21T02:47:49;19.50;53.70
38263;DHT22;24054;50.128;19.730;2024-02-21T02:50:16;19.40;53.60
38263;DHT22;24054;50.128;19.730;2024-02-21T02:52:44;19.40;53.60
38263;DHT22;24054;50.128;19.730;2024-02-21T02:55:11;19.40;53.60
38263;DHT22;24054;50.128;19.730;2024-02-21T02:57:38;19.40;53.60
38263;DHT22;24054;50.128;19.730;2024-02-21T03:00:11;19.40;53.60
38263;DHT22;24054;50.128;19.730;2024-02-21T03:02:39;19.40;53.60
38263;DHT22;24054;50.128;19.730;2024-02-21T03:05:12;19.40;53.60
38263;DHT22;24054;50.128;19.730;2024-02-21T03:07:40;19.40;53.60
38263;DHT22;24054;50.128;19.730;2024-02-21T03:10:08;19.40;53.60
38263;DHT22;24054;50.128;19.730;2024-02-21T03:12:35;19.40;53.60
38263;DHT22;24054;50.128;19.730;2024-02-21T03:15:03;19.40;53.60
38263;DHT22;24054;50.128;19.730;2024-02-21T03:17:32;19.40;53.50
38263;DHT22;24054;50.128;19.730;2024-02-21T03:20:01;19.40;53.50
38263;DHT22;24054;50.128;19.730;2024-02-21T03:22:31;19.30;53.50
38263;DHT22;24054;50.128;19.730;2024-02-21T03:24:58;19.30;53.50
38263;DHT22;24054;50.128;19.730;2024-02-21T03:27:26;19.30;53.50
38263;DHT22;24054;50.128;19.730;2024-02-21T03:29:53;19.30;53.50
38263;DHT22;24054;50.128;19.730;2024-02-21T03:32:21;19.30;53.50
38263;DHT22;24054;50.128;19.730;2024-02-21T03:34:49;19.30;53.50
38263;DHT22;24054;50.128;19.730;2024-02-21T03:37:16;19.30;53.50
38263;DHT22;24054;50.128;19.730;2024-02-21T03:39:44;19.30;53.50
38263;DHT22;24054;50.128;19.730;2024-02-21T03:42:11;19.30;53.50
38263;DHT22;24054;50.128;19.730;2024-02-21T03:44:39;19.30;53.40
38263;DHT22;24054;50.128;19.730;2024-02-21T03:47:06;19.30;53.40
38263;DHT22;24054;50.128;19.730;2024-02-21T03:49:36;19.30;53.40
38263;DHT22;24054;50.128;19.730;2024-02-21T03:52:05;19.30;53.40
38263;DHT22;24054;50.128;19.730;2024-02-21T03:54:33;19.30;53.40
38263;DHT22;24054;50.128;19.730;2024-02-21T03:57:01;19.20;53.30
38263;DHT22;24054;50.128;19.730;2024-02-21T03:59:28;19.20;53.30
38263;DHT22;24054;50.128;19.730;2024-02-21T04:01:55;19.20;53.30
38263;DHT22;24054;50.128;19.730;2024-02-21T04:04:22;19.20;53.30
38263;DHT22;24054;50.128;19.730;2024-02-21T04:06:50;19.20;53.30
38263;DHT22;24054;50.128;19.730;2024-02-21T04:09:19;19.20;53.30
38263;DHT22;24054;50.128;19.730;2024-02-21T04:11:46;19.20;53.30
38263;DHT22;24054;50.128;19.730;2024-02-21T04:14:13;19.30;53.30
38263;DHT22;24054;50.128;19.730;2024-02-21T04:16:40;19.20;53.20
38263;DHT22;24054;50.128;19.730;2024-02-21T04:19:07;19.20;53.20
38263;DHT22;24054;50.128;19.730;2024-02-21T04:21:35;19.20;53.20
38263;DHT22;24054;50.128;19.730;2024-02-21T04:24:02;19.20;53.20
38263;DHT22;24054;50.128;19.730;2024-02-21T04:26:33;19.10;53.20
38263;DHT22;24054;50.128;19.730;2024-02-21T04:29:00;19.10;53.20
38263;DHT22;24054;50.128;19.730;2024-02-21T04:31:27;19.20;53.20
38263;DHT22;24054;50.128;19.730;2024-02-21T04:33:54;19.20;53.20
38263;DHT22;24054;50.128;19.730;2024-02-21T04:36:21;19.10;53.20
38263;DHT22;24054;50.128;19.730;2024-02-21T04:38:49;19.10;53.20
38263;DHT22;24054;50.128;19.730;2024-02-21T04:41:16;19.10;53.20
38263;DHT22;24054;50.128;19.730;2024-02-21T04:43:45;19.10;53.20
38263;DHT22;24054;50.128;19.730;2024-02-21T04:46:13;19.10;53.20
38263;DHT22;24054;50.128;19.730;2024-02-21T04:48:41;19.10;53.10
38263;DHT22;24054;50.128;19.730;2024-02-21T04:51:08;19.10;53.20
38263;DHT22;24054;50.128;19.730;2024-02-21T04:53:35;19.10;53.20
38263;DHT22;24054;50.128;19.730;2024-02-21T04:56:03;19.10;53.10
38263;DHT22;24054;50.128;19.730;2024-02-21T04:58:31;19.10;53.20
38263;DHT22;24054;50.128;19.730;2024-02-21T05:00:59;19.10;53.10
38263;DHT22;24054;50.128;19.730;2024-02-21T05:03:26;19.10;53.10
38263;DHT22;24054;50.128;19.730;2024-02-21T05:05:53;19.10;53.10
38263;DHT22;24054;50.128;19.730;2024-02-21T05:08:21;19.00;53.10
38263;DHT22;24054;50.128;19.730;2024-02-21T05:10:48;19.00;53.10
38263;DHT22;24054;50.128;19.730;2024-02-21T05:13:15;19.00;53.10
38263;DHT22;24054;50.128;19.730;2024-02-21T05:15:42;19.00;53.00
38263;DHT22;24054;50.128;19.730;2024-02-21T05:18:11;19.00;53.10
38263;DHT22;24054;50.128;19.730;2024-02-21T05:20:38;19.00;53.10
38263;DHT22;24054;50.128;19.730;2024-02-21T05:23:08;19.00;53.10
38263;DHT22;24054;50.128;19.730;2024-02-21T05:25:35;19.00;53.10
38263;DHT22;24054;50.128;19.730;2024-02-21T05:28:02;19.00;53.10
38263;DHT22;24054;50.128;19.730;2024-02-21T05:30:31;19.00;53.70
38263;DHT22;24054;50.128;19.730;2024-02-21T05:32:59;19.00;53.10
38263;DHT22;24054;50.128;19.730;2024-02-21T05:35:28;19.00;53.10
38263;DHT22;24054;50.128;19.730;2024-02-21T05:37:56;19.00;53.10
38263;DHT22;24054;50.128;19.730;2024-02-21T05:40:23;19.00;53.10
38263;DHT22;24054;50.128;19.730;2024-02-21T05:42:51;19.00;53.10
38263;DHT22;24054;50.128;19.730;2024-02-21T05:45:18;19.00;53.00
38263;DHT22;24054;50.128;19.730;2024-02-21T05:47:45;19.00;53.10
38263;DHT22;24054;50.128;19.730;2024-02-21T05:50:12;19.00;53.00
38263;DHT22;24054;50.128;19.730;2024-02-21T05:52:41;19.00;53.00
38263;DHT22;24054;50.128;19.730;2024-02-21T05:55:08;18.90;52.90
38263;DHT22;24054;50.128;19.730;2024-02-21T05:57:35;18.90;52.90
38263;DHT22;24054;50.128;19.730;2024-02-21T06:00:05;18.90;53.00
38263;DHT22;24054;50.128;19.730;2024-02-21T06:02:32;18.90;53.00
38263;DHT22;24054;50.128;19.730;2024-02-21T06:04:59;18.90;53.00
38263;DHT22;24054;50.128;19.730;2024-02-21T06:07:26;18.90;53.00
38263;DHT22;24054;50.128;19.730;2024-02-21T06:09:55;18.90;52.90
38263;DHT22;24054;50.128;19.730;2024-02-21T06:12:22;18.90;52.90
38263;DHT22;24054;50.128;19.730;2024-02-21T06:14:49;18.90;52.90
38263;DHT22;24054;50.128;19.730;2024-02-21T06:17:16;19.00;53.00
38263;DHT22;24054;50.128;19.730;2024-02-21T06:19:44;19.00;53.00
38263;DHT22;24054;50.128;19.730;2024-02-21T06:22:11;19.10;53.00
38263;DHT22;24054;50.128;19.730;2024-02-21T06:24:39;19.20;53.00
38263;DHT22;24054;50.128;19.730;2024-02-21T06:27:07;19.20;52.90
38263;DHT22;24054;50.128;19.730;2024-02-21T06:29:35;19.30;52.80
38263;DHT22;24054;50.128;19.730;2024-02-21T06:32:02;19.40;52.80
38263;DHT22;24054;50.128;19.730;2024-02-21T06:34:30;19.40;52.60
38263;DHT22;24054;50.128;19.730;2024-02-21T06:36:57;19.50;52.60
38263;DHT22;24054;50.128;19.730;2024-02-21T06:39:24;19.50;52.50
38263;DHT22;24054;50.128;19.730;2024-02-21T06:41:51;19.60;52.50
38263;DHT22;24054;50.128;19.730;2024-02-21T06:44:21;19.60;52.50
38263;DHT22;24054;50.128;19.730;2024-02-21T06:46:48;19.70;52.40
38263;DHT22;24054;50.128;19.730;2024-02-21T06:49:15;19.80;52.30
38263;DHT22;24054;50.128;19.730;2024-02-21T06:51:42;19.80;52.20
38263;DHT22;24054;50.128;19.730;2024-02-21T06:54:10;19.90;52.10
38263;DHT22;24054;50.128;19.730;2024-02-21T06:56:39;19.90;52.10
38263;DHT22;24054;50.128;19.730;2024-02-21T06:59:06;20.00;52.00
38263;DHT22;24054;50.128;19.730;2024-02-21T07:01:34;20.00;52.00
38263;DHT22;24054;50.128;19.730;2024-02-21T07:04:01;20.00;52.30
38263;DHT22;24054;50.128;19.730;2024-02-21T07:06:29;20.10;52.30
38263;DHT22;24054;50.128;19.730;2024-02-21T07:08:57;20.10;52.40
38263;DHT22;24054;50.128;19.730;2024-02-21T07:11:23;20.20;53.00
38263;DHT22;24054;50.128;19.730;2024-02-21T07:13:51;20.20;53.50
38263;DHT22;24054;50.128;19.730;2024-02-21T07:16:19;20.30;53.70
38263;DHT22;24054;50.128;19.730;2024-02-21T07:18:47;20.30;53.60
38263;DHT22;24054;50.128;19.730;2024-02-21T07:21:14;20.30;53.50
38263;DHT22;24054;50.128;19.730;2024-02-21T07:23:42;20.30;53.40
38263;DHT22;24054;50.128;19.730;2024-02-21T07:26:09;20.30;53.50
38263;DHT22;24054;50.128;19.730;2024-02-21T07:28:36;20.30;53.20
38263;DHT22;24054;50.128;19.730;2024-02-21T07:31:04;20.30;53.10
38263;DHT22;24054;50.128;19.730;2024-02-21T07:33:31;20.40;53.10
38263;DHT22;24054;50.128;19.730;2024-02-21T07:36:00;20.40;53.00
38263;DHT22;24054;50.128;19.730;2024-02-21T07:38:27;20.40;52.90
38263;DHT22;24054;50.128;19.730;2024-02-21T07:40:53;20.50;52.90
38263;DHT22;24054;50.128;19.730;2024-02-21T07:43:21;20.50;53.00
38263;DHT22;24054;50.128;19.730;2024-02-21T07:45:48;20.50;52.90
38263;DHT22;24054;50.128;19.730;2024-02-21T07:48:15;20.60;53.00
38263;DHT22;24054;50.128;19.730;2024-02-21T07:50:44;20.60;53.00
38263;DHT22;24054;50.128;19.730;2024-02-21T07:53:14;20.60;53.10
38263;DHT22;24054;50.128;19.730;2024-02-21T07:55:41;20.60;53.20
38263;DHT22;24054;50.128;19.730;2024-02-21T07:58:08;20.60;53.20
38263;DHT22;24054;50.128;19.730;2024-02-21T08:00:35;20.60;53.30
38263;DHT22;24054;50.128;19.730;2024-02-21T08:03:03;20.60;53.40
38263;DHT22;24054;50.128;19.730;2024-02-21T08:05:30;20.60;53.50
38263;DHT22;24054;50.128;19.730;2024-02-21T08:07:57;20.60;53.50
38263;DHT22;24054;50.128;19.730;2024-02-21T08:10:25;20.60;53.50
38263;DHT22;24054;50.128;19.730;2024-02-21T08:12:53;20.60;53.50
38263;DHT22;24054;50.128;19.730;2024-02-21T08:15:20;20.60;53.60
38263;DHT22;24054;50.128;19.730;2024-02-21T08:17:51;20.70;53.60
38263;DHT22;24054;50.128;19.730;2024-02-21T08:20:18;20.70;53.70
38263;DHT22;24054;50.128;19.730;2024-02-21T08:22:45;20.70;53.60
38263;DHT22;24054;50.128;19.730;2024-02-21T08:25:12;20.80;53.60
38263;DHT22;24054;50.128;19.730;2024-02-21T08:27:41;20.80;53.60
38263;DHT22;24054;50.128;19.730;2024-02-21T08:30:09;20.70;53.50
38263;DHT22;24054;50.128;19.730;2024-02-21T08:32:36;20.80;53.60
38263;DHT22;24054;50.128;19.730;2024-02-21T08:35:03;20.80;53.60
38263;DHT22;24054;50.128;19.730;2024-02-21T08:37:31;20.80;53.60
38263;DHT22;24054;50.128;19.730;2024-02-21T08:39:58;20.80;53.60
38263;DHT22;24054;50.128;19.730;2024-02-21T08:42:30;20.80;53.70
38263;DHT22;24054;50.128;19.730;2024-02-21T08:44:59;20.80;53.60
38263;DHT22;24054;50.128;19.730;2024-02-21T08:47:26;20.80;53.60
38263;DHT22;24054;50.128;19.730;2024-02-21T08:49:53;20.80;53.60
38263;DHT22;24054;50.128;19.730;2024-02-21T08:52:20;20.90;54.20
38263;DHT22;24054;50.128;19.730;2024-02-21T08:54:47;20.90;53.70
38263;DHT22;24054;50.128;19.730;2024-02-21T08:57:14;20.90;53.60
38263;DHT22;24054;50.128;19.730;2024-02-21T08:59:42;20.90;53.60
38263;DHT22;24054;50.128;19.730;2024-02-21T09:02:10;21.00;53.50
38263;DHT22;24054;50.128;19.730;2024-02-21T09:04:37;21.10;53.50
38263;DHT22;24054;50.128;19.730;2024-02-21T09:07:04;21.10;53.40
38263;DHT22;24054;50.128;19.730;2024-02-21T09:09:31;21.20;53.30
38263;DHT22;24054;50.128;19.730;2024-02-21T09:11:59;21.20;53.20
38263;DHT22;24054;50.128;19.730;2024-02-21T09:14:31;21.30;53.10
38263;DHT22;24054;50.128;19.730;2024-02-21T09:16:58;21.30;53.10
38263;DHT22;24054;50.128;19.730;2024-02-21T09:19:26;21.40;53.10
38263;DHT22;24054;50.128;19.730;2024-02-21T09:21:54;21.40;53.10
38263;DHT22;24054;50.128;19.730;2024-02-21T09:24:21;21.50;53.00
38263;DHT22;24054;50.128;19.730;2024-02-21T09:26:48;21.60;53.00
38263;DHT22;24054;50.128;19.730;2024-02-21T09:29:16;21.60;52.90
38263;DHT22;24054;50.128;19.730;2024-02-21T09:32:48;21.80;52.60
38263;DHT22;24054;50.128;19.730;2024-02-21T09:35:15;21.80;52.40
38263;DHT22;24054;50.128;19.730;2024-02-21T09:37:42;21.80;49.40
38263;DHT22;24054;50.128;19.730;2024-02-21T09:40:10;21.60;49.00
38263;DHT22;24054;50.128;19.730;2024-02-21T09:42:38;21.60;49.10
38263;DHT22;24054;50.128;19.730;2024-02-21T09:45:08;21.60;49.30
38263;DHT22;24054;50.128;19.730;2024-02-21T09:47:45;21.60;49.40
38263;DHT22;24054;50.128;19.730;2024-02-21T09:50:15;21.60;48.90
38263;DHT22;24054;50.128;19.730;2024-02-21T09:52:44;21.60;48.70
38263;DHT22;24054;50.128;19.730;2024-02-21T09:55:12;21.50;48.30
38263;DHT22;24054;50.128;19.730;2024-02-21T09:57:40;21.50;48.30
38263;DHT22;24054;50.128;19.730;2024-02-21T10:00:08;21.40;47.50
38263;DHT22;24054;50.128;19.730;2024-02-21T10:02:35;21.40;46.80
38263;DHT22;24054;50.128;19.730;2024-02-21T10:05:02;21.40;46.70
38263;DHT22;24054;50.128;19.730;2024-02-21T10:07:32;21.40;46.90
38263;DHT22;24054;50.128;19.730;2024-02-21T10:10:04;21.50;46.70
38263;DHT22;24054;50.128;19.730;2024-02-21T10:12:32;21.40;46.90
38263;DHT22;24054;50.128;19.730;2024-02-21T10:15:02;21.40;46.90
38263;DHT22;24054;50.128;19.730;2024-02-21T10:17:30;21.40;46.90
38263;DHT22;24054;50.128;19.730;2024-02-21T10:20:07;21.30;46.60
38263;DHT22;24054;50.128;19.730;2024-02-21T10:22:38;21.30;46.10
38263;DHT22;24054;50.128;19.730;2024-02-21T10:25:08;21.20;46.00
38263;DHT22;24054;50.128;19.730;2024-02-21T10:27:36;21.20;45.40
38263;DHT22;24054;50.128;19.730;2024-02-21T10:30:04;21.30;46.10
38263;DHT22;24054;50.128;19.730;2024-02-21T10:32:32;21.20;46.00
38263;DHT22;24054;50.128;19.730;2024-02-21T10:35:03;21.30;45.70
38263;DHT22;24054;50.128;19.730;2024-02-21T10:37:31;21.50;45.60
38263;DHT22;24054;50.128;19.730;2024-02-21T10:40:01;21.60;45.30
38263;DHT22;24054;50.128;19.730;2024-02-21T10:42:31;21.60;45.20
38263;DHT22;24054;50.128;19.730;2024-02-21T10:45:01;21.60;44.90
38263;DHT22;24054;50.128;19.730;2024-02-21T10:47:32;21.70;45.30
38263;DHT22;24054;50.128;19.730;2024-02-21T10:50:04;21.60;43.80
38263;DHT22;24054;50.128;19.730;2024-02-21T10:52:43;21.50;44.20
38263;DHT22;24054;50.128;19.730;2024-02-21T10:55:19;21.40;44.50
38263;DHT22;24054;50.128;19.730;2024-02-21T10:57:50;21.40;45.20
38263;DHT22;24054;50.128;19.730;2024-02-21T11:00:18;21.40;45.00
38263;DHT22;24054;50.128;19.730;2024-02-21T11:02:45;21.40;45.10
38263;DHT22;24054;50.128;19.730;2024-02-21T11:05:13;21.40;45.30
38263;DHT22;24054;50.128;19.730;2024-02-21T11:07:41;21.40;45.20
38263;DHT22;24054;50.128;19.730;2024-02-21T11:10:23;21.50;45.20
38263;DHT22;24054;50.128;19.730;2024-02-21T11:12:53;21.50;45.20
38263;DHT22;24054;50.128;19.730;2024-02-21T11:15:25;21.50;45.30
38263;DHT22;24054;50.128;19.730;2024-02-21T11:17:54;21.50;45.40
38263;DHT22;24054;50.128;19.730;2024-02-21T11:20:32;21.50;45.60
38263;DHT22;24054;50.128;19.730;2024-02-21T11:22:59;21.50;45.80
38263;DHT22;24054;50.128;19.730;2024-02-21T11:25:28;21.50;46.00
38263;DHT22;24054;50.128;19.730;2024-02-21T11:28:00;21.50;46.10
38263;DHT22;24054;50.128;19.730;2024-02-21T11:30:29;21.50;46.10
38263;DHT22;24054;50.128;19.730;2024-02-21T11:33:01;21.60;46.30
38263;DHT22;24054;50.128;19.730;2024-02-21T11:35:32;21.50;46.30
38263;DHT22;24054;50.128;19.730;2024-02-21T11:38:10;21.60;46.40
38263;DHT22;24054;50.128;19.730;2024-02-21T11:40:43;21.70;46.40
38263;DHT22;24054;50.128;19.730;2024-02-21T11:43:10;21.80;46.40
38263;DHT22;24054;50.128;19.730;2024-02-21T11:45:37;21.90;46.30
38263;DHT22;24054;50.128;19.730;2024-02-21T11:48:06;22.00;46.20
38263;DHT22;24054;50.128;19.730;2024-02-21T11:50:34;22.20;46.10
38263;DHT22;24054;50.128;19.730;2024-02-21T11:53:02;22.30;45.90
38263;DHT22;24054;50.128;19.730;2024-02-21T11:55:29;22.40;46.00
38263;DHT22;24054;50.128;19.730;2024-02-21T11:57:57;22.40;46.20
38263;DHT22;24054;50.128;19.730;2024-02-21T12:00:26;22.30;46.30
38263;DHT22;24054;50.128;19.730;2024-02-21T12:02:53;22.30;46.20
38263;DHT22;24054;50.128;19.730;2024-02-21T12:05:26;22.20;45.40
38263;DHT22;24054;50.128;19.730;2024-02-21T12:07:56;22.10;45.20
38263;DHT22;24054;50.128;19.730;2024-02-21T12:10:24;22.10;45.40
38263;DHT22;24054;50.128;19.730;2024-02-21T12:12:52;22.00;45.50
38263;DHT22;24054;50.128;19.730;2024-02-21T12:15:25;22.00;45.80
38263;DHT22;24054;50.128;19.730;2024-02-21T12:17:52;21.90;45.80
38263;DHT22;24054;50.128;19.730;2024-02-21T12:20:21;21.90;46.10
38263;DHT22;24054;50.128;19.730;2024-02-21T12:22:49;21.90;46.30
38263;DHT22;24054;50.128;19.730;2024-02-21T12:25:17;21.90;46.30
38263;DHT22;24054;50.128;19.730;2024-02-21T12:27:48;21.80;46.40
38263;DHT22;24054;50.128;19.730;2024-02-21T12:30:15;21.80;46.40
38263;DHT22;24054;50.128;19.730;2024-02-21T12:32:45;21.80;46.50
38263;DHT22;24054;50.128;19.730;2024-02-21T12:35:12;21.80;46.60
38263;DHT22;24054;50.128;19.730;2024-02-21T12:37:39;21.70;46.70
38263;DHT22;24054;50.128;19.730;2024-02-21T12:40:08;21.70;46.80
38263;DHT22;24054;50.128;19.730;2024-02-21T12:42:36;21.70;47.00
38263;DHT22;24054;50.128;19.730;2024-02-21T12:45:04;21.70;47.00
38263;DHT22;24054;50.128;19.730;2024-02-21T12:47:31;21.70;47.10
38263;DHT22;24054;50.128;19.730;2024-02-21T12:50:00;21.60;47.20
38263;DHT22;24054;50.128;19.730;2024-02-21T12:52:29;21.60;47.30
38263;DHT22;24054;50.128;19.730;2024-02-21T12:54:57;21.60;47.40
38263;DHT22;24054;50.128;19.730;2024-02-21T12:57:24;21.60;47.50
38263;DHT22;24054;50.128;19.730;2024-02-21T12:59:51;21.60;47.60
38263;DHT22;24054;50.128;19.730;2024-02-21T13:02:19;21.60;47.70
38263;DHT22;24054;50.128;19.730;2024-02-21T13:04:47;21.60;47.80
38263;DHT22;24054;50.128;19.730;2024-02-21T13:07:15;21.60;47.90
38263;DHT22;24054;50.128;19.730;2024-02-21T13:09:42;21.60;48.00
38263;DHT22;24054;50.128;19.730;2024-02-21T13:12:10;21.60;48.10
38263;DHT22;24054;50.128;19.730;2024-02-21T13:14:39;21.60;48.20
38263;DHT22;24054;50.128;19.730;2024-02-21T13:17:09;21.60;48.20
38263;DHT22;24054;50.128;19.730;2024-02-21T13:19:36;21.60;48.30
38263;DHT22;24054;50.128;19.730;2024-02-21T13:22:03;21.60;48.40
38263;DHT22;24054;50.128;19.730;2024-02-21T13:24:32;21.60;48.40
38263;DHT22;24054;50.128;19.730;2024-02-21T13:26:59;21.60;48.40
38263;DHT22;24054;50.128;19.730;2024-02-21T13:29:26;21.60;48.40
38263;DHT22;24054;50.128;19.730;2024-02-21T13:31:54;21.60;48.40
38263;DHT22;24054;50.128;19.730;2024-02-21T13:34:21;21.60;48.40
38263;DHT22;24054;50.128;19.730;2024-02-21T13:36:49;21.70;48.40
38263;DHT22;24054;50.128;19.730;2024-02-21T13:39:16;21.70;48.30
38263;DHT22;24054;50.128;19.730;2024-02-21T13:41:46;21.80;48.40
38263;DHT22;24054;50.128;19.730;2024-02-21T13:44:13;21.70;48.40
38263;DHT22;24054;50.128;19.730;2024-02-21T13:46:40;21.80;48.60
38263;DHT22;24054;50.128;19.730;2024-02-21T13:49:07;21.70;48.60
38263;DHT22;24054;50.128;19.730;2024-02-21T13:51:35;21.70;48.70
38263;DHT22;24054;50.128;19.730;2024-02-21T13:54:03;21.70;48.80
38263;DHT22;24054;50.128;19.730;2024-02-21T13:56:30;21.70;48.90
38263;DHT22;24054;50.128;19.730;2024-02-21T13:58:59;21.70;49.00
38263;DHT22;24054;50.128;19.730;2024-02-21T14:01:26;21.70;49.10
38263;DHT22;24054;50.128;19.730;2024-02-21T14:03:54;21.60;49.20
38263;DHT22;24054;50.128;19.730;2024-02-21T14:06:22;21.60;49.30
38263;DHT22;24054;50.128;19.730;2024-02-21T14:08:49;21.60;49.40
38263;DHT22;24054;50.128;19.730;2024-02-21T14:11:16;21.60;49.50
38263;DHT22;24054;50.128;19.730;2024-02-21T14:13:43;21.60;49.60
38263;DHT22;24054;50.128;19.730;2024-02-21T14:16:12;21.60;49.60
38263;DHT22;24054;50.128;19.730;2024-02-21T14:18:40;21.60;49.60
38263;DHT22;24054;50.128;19.730;2024-02-21T14:21:08;21.60;49.70
38263;DHT22;24054;50.128;19.730;2024-02-21T14:23:36;21.60;49.70
38263;DHT22;24054;50.128;19.730;2024-02-21T14:26:04;21.60;49.90
38263;DHT22;24054;50.128;19.730;2024-02-21T14:28:32;21.60;49.80
38263;DHT22;24054;50.128;19.730;2024-02-21T14:31:00;21.60;49.90
38263;DHT22;24054;50.128;19.730;2024-02-21T14:33:30;21.60;50.00
38263;DHT22;24054;50.128;19.730;2024-02-21T14:35:58;21.50;50.00
38263;DHT22;24054;50.128;19.730;2024-02-21T14:38:25;21.60;50.10
38263;DHT22;24054;50.128;19.730;2024-02-21T14:40:52;21.60;50.20
38263;DHT22;24054;50.128;19.730;2024-02-21T14:43:20;21.60;50.20
38263;DHT22;24054;50.128;19.730;2024-02-21T14:45:47;21.50;50.30
38263;DHT22;24054;50.128;19.730;2024-02-21T14:48:15;21.60;50.40
38263;DHT22;24054;50.128;19.730;2024-02-21T14:50:43;21.60;50.50
38263;DHT22;24054;50.128;19.730;2024-02-21T14:53:11;21.60;50.50
38263;DHT22;24054;50.128;19.730;2024-02-21T14:55:38;21.50;50.60
38263;DHT22;24054;50.128;19.730;2024-02-21T14:58:07;21.60;50.80
38263;DHT22;24054;50.128;19.730;2024-02-21T15:00:35;21.50;50.80
38263;DHT22;24054;50.128;19.730;2024-02-21T15:03:02;21.60;50.90
38263;DHT22;24054;50.128;19.730;2024-02-21T15:05:29;21.60;51.00
38263;DHT22;24054;50.128;19.730;2024-02-21T15:07:58;21.60;51.00
38263;DHT22;24054;50.128;19.730;2024-02-21T15:10:25;21.60;51.10
38263;DHT22;24054;50.128;19.730;2024-02-21T15:12:53;21.60;51.10
38263;DHT22;24054;50.128;19.730;2024-02-21T15:15:21;21.60;51.20
38263;DHT22;24054;50.128;19.730;2024-02-21T15:17:48;21.60;51.20
38263;DHT22;24054;50.128;19.730;2024-02-21T15:20:16;21.60;51.20
38263;DHT22;24054;50.128;19.730;2024-02-21T15:22:43;21.60;51.30